Time;durP1;ratioP1;P1;durP2;ratioP2;P2;SDS_P1;SDS_P2;PMS_P1;PMS_P2;Temp;Humidity;BMP_temperature;BMP_pressure;BME280_temperature;BME280_humidity;BME280_pressure;Samples;Min_cycle;Max_cycle;Signal;HPM_P1;HPM_P2
2023/10/20 00:00:39;;;;;;;0.20;0.20;;;;;;;12.69;61.05;100530.41;4990520;28;20053;-86
2023/10/20 00:03:04;;;;;;;0.10;0.10;;;;;;;12.67;61.26;100518.41;5007195;28;20068;-86
2023/10/20 00:05:30;;;;;;;0.10;0.10;;;;;;;12.70;61.35;100523.44;4974483;28;20062;-86
2023/10/20 00:07:56;;;;;;;0.30;0.20;;;;;;;12.74;61.23;100523.16;4974002;28;20069;-85
2023/10/20 00:10:21;;;;;;;0.10;0.10;;;;;;;12.70;61.28;100523.44;4974139;28;20042;-85
2023/10/20 00:12:47;;;;;;;0.10;0.10;;;;;;;12.63;61.41;100504.81;4974270;28;20543;-86
2023/10/20 00:15:15;;;;;;;0.10;0.10;;;;;;;12.61;61.62;100517.88;4973868;28;20022;-87
2023/10/20 00:17:41;;;;;;;0.10;0.10;;;;;;;12.52;61.85;100508.03;4974436;28;20026;-86
2023/10/20 00:20:09;;;;;;;0.10;0.10;;;;;;;12.28;61.78;100476.56;4973640;28;20043;-86
2023/10/20 00:22:35;;;;;;;0.20;0.20;;;;;;;12.44;61.73;100497.25;5006435;28;20496;-85
2023/10/20 00:25:00;;;;;;;0.10;0.10;;;;;;;12.45;62.14;100492.91;4974082;28;20030;-86
2023/10/20 00:27:26;;;;;;;0.10;0.10;;;;;;;12.52;62.25;100504.59;4973794;28;20034;-86
2023/10/20 00:29:51;;;;;;;0.10;0.10;;;;;;;12.39;62.23;100498.44;4990069;28;20042;-85
2023/10/20 00:32:19;;;;;;;0.15;0.15;;;;;;;12.49;62.05;100510.81;4973165;28;20072;-86
2023/10/20 00:34:45;;;;;;;0.20;0.20;;;;;;;12.10;62.39;100472.47;4973963;28;20480;-85
2023/10/20 00:37:10;;;;;;;0.10;0.10;;;;;;;12.35;62.42;100503.81;4973709;28;20026;-85
2023/10/20 00:39:36;;;;;;;0.10;0.10;;;;;;;12.41;62.11;100501.81;4989919;28;20041;-86
2023/10/20 00:42:02;;;;;;;0.20;0.20;;;;;;;12.17;62.49;100475.50;4973804;28;20042;-85
2023/10/20 00:44:28;;;;;;;0.10;0.10;;;;;;;12.30;62.37;100489.47;4973756;28;20023;-86
2023/10/20 00:46:53;;;;;;;0.10;0.10;;;;;;;12.26;62.21;100477.56;4973563;28;20109;-85
2023/10/20 00:49:19;;;;;;;0.10;0.10;;;;;;;12.21;62.63;100501.19;4973654;28;20038;-86
2023/10/20 00:51:44;;;;;;;0.10;0.10;;;;;;;12.14;62.97;100497.28;5005901;28;20412;-85
2023/10/20 00:54:13;;;;;;;0.10;0.10;;;;;;;12.06;63.00;100502.91;4957642;28;20045;-85
2023/10/20 00:56:41;;;;;;;0.10;0.10;;;;;;;12.13;62.94;100485.25;4974333;28;20034;-86
2023/10/20 00:59:07;;;;;;;0.10;0.10;;;;;;;12.09;62.88;100486.31;4974333;28;20045;-85
2023/10/20 01:01:33;;;;;;;0.10;0.10;;;;;;;11.94;63.36;100472.50;4973540;28;20058;-85
2023/10/20 01:03:59;;;;;;;0.10;0.10;;;;;;;12.01;63.29;100483.34;4973814;28;20030;-85
2023/10/20 01:06:25;;;;;;;0.20;0.20;;;;;;;12.01;62.92;100467.81;5005842;28;20503;-86
2023/10/20 01:08:57;;;;;;;0.10;0.10;;;;;;;11.91;63.14;100464.06;4973688;28;20109;-85
2023/10/20 01:11:22;;;;;;;0.20;0.20;;;;;;;11.88;63.74;100467.66;4957773;28;20126;-86
2023/10/20 01:13:48;;;;;;;0.10;0.10;;;;;;;11.85;63.73;100462.66;4973561;28;20125;-86
2023/10/20 01:16:13;;;;;;;0.10;0.10;;;;;;;11.75;63.91;100456.28;4957408;28;20030;-85
2023/10/20 01:18:39;;;;;;;0.20;0.20;;;;;;;11.75;63.75;100457.13;4973161;28;20051;-85
2023/10/20 01:21:04;;;;;;;0.10;0.10;;;;;;;11.72;63.74;100449.53;4973313;28;20412;-86
2023/10/20 01:23:30;;;;;;;0.20;0.20;;;;;;;11.68;64.23;100449.75;5006092;28;20026;-86
2023/10/20 01:25:56;;;;;;;0.10;0.10;;;;;;;11.66;64.15;100455.03;4973456;28;20447;-85
2023/10/20 01:28:22;;;;;;;0.10;0.10;;;;;;;11.54;64.33;100449.72;4973532;28;20113;-86
2023/10/20 01:30:47;;;;;;;0.10;0.10;;;;;;;11.57;64.58;100458.13;5006059;28;20048;-86
2023/10/20 01:33:13;;;;;;;0.20;0.20;;;;;;;11.56;64.83;100463.41;4973429;28;20404;-85
2023/10/20 01:35:39;;;;;;;0.10;0.10;;;;;;;11.54;64.42;100442.78;4973428;28;20034;-85
2023/10/20 01:38:04;;;;;;;0.10;0.10;;;;;;;11.69;64.59;100470.41;4989574;28;20507;-86
2023/10/20 01:40:30;;;;;;;0.10;0.10;;;;;;;11.63;64.51;100470.75;4957169;28;20507;-86
2023/10/20 01:42:55;;;;;;;0.20;0.20;;;;;;;11.48;65.16;100476.78;4989408;28;20031;-85
2023/10/20 01:45:21;;;;;;;0.10;0.10;;;;;;;11.51;64.73;100457.66;4991006;28;20408;-85
2023/10/20 01:47:47;;;;;;;0.10;0.10;;;;;;;11.48;64.97;100474.19;4976657;28;20053;-86
2023/10/20 01:50:12;;;;;;;0.10;0.10;;;;;;;11.54;64.95;100483.38;4960398;28;20026;-85
2023/10/20 01:52:38;;;;;;;0.10;0.10;;;;;;;11.61;64.87;100488.16;4976948;28;20404;-86
2023/10/20 01:55:04;;;;;;;0.10;0.10;;;;;;;11.56;64.30;100455.63;4992701;28;20066;-86
2023/10/20 01:57:30;;;;;;;0.10;0.10;;;;;;;11.64;64.41;100476.78;4992639;28;20117;-85
2023/10/20 01:59:55;;;;;;;0.10;0.10;;;;;;;11.55;64.51;100477.28;5008939;28;20031;-85
2023/10/20 02:02:21;;;;;;;0.10;0.10;;;;;;;11.39;65.41;100470.34;4976450;28;20031;-85
2023/10/20 02:04:46;;;;;;;0.10;0.10;;;;;;;11.44;65.06;100473.53;4975830;28;20031;-86
2023/10/20 02:07:12;;;;;;;0.10;0.10;;;;;;;11.43;65.24;100494.34;4976151;28;20030;-85
2023/10/20 02:09:38;;;;;;;0.10;0.10;;;;;;;11.50;64.94;100493.06;4992500;28;20504;-85
2023/10/20 02:12:04;;;;;;;0.10;0.10;;;;;;;11.45;64.83;100467.44;4992201;28;20117;-86
2023/10/20 02:14:30;;;;;;;0.20;0.20;;;;;;;11.54;64.73;100484.22;4976313;28;20476;-85
2023/10/20 02:16:56;;;;;;;0.10;0.10;;;;;;;11.40;65.04;100471.19;4976398;28;20030;-85
2023/10/20 02:19:22;;;;;;;0.10;0.10;;;;;;;11.41;65.04;100473.72;4975745;28;20526;-86
2023/10/20 02:21:47;;;;;;;0.10;0.10;;;;;;;11.35;65.44;100470.59;4992249;28;20041;-85
2023/10/20 02:24:13;;;;;;;0.10;0.10;;;;;;;11.49;64.94;100475.84;4976226;28;20035;-85
2023/10/20 02:26:39;;;;;;;0.10;0.10;;;;;;;11.35;64.91;100442.94;4992272;28;20034;-86
2023/10/20 02:29:04;;;;;;;0.20;0.20;;;;;;;11.43;65.10;100461.50;4975889;28;20112;-85
2023/10/20 02:31:30;;;;;;;0.10;0.10;;;;;;;11.32;65.53;100453.50;4975876;28;20101;-87
2023/10/20 02:33:55;;;;;;;0.10;0.10;;;;;;;11.22;65.86;100446.31;4975544;28;20092;-86
2023/10/20 02:36:21;;;;;;;0.10;0.10;;;;;;;11.18;66.05;100425.75;4975747;28;20061;-86
2023/10/20 02:38:47;;;;;;;0.10;0.10;;;;;;;11.24;65.86;100449.63;4975871;28;20027;-86
2023/10/20 02:41:14;;;;;;;0.10;0.10;;;;;;;11.15;65.91;100438.88;4975742;28;20076;-85
2023/10/20 02:43:40;;;;;;;0.20;0.20;;;;;;;11.15;65.77;100420.72;4991673;28;20034;-87
2023/10/20 02:46:05;;;;;;;0.10;0.10;;;;;;;11.17;66.25;100424.06;4975767;28;20049;-86
2023/10/20 02:48:31;;;;;;;0.10;0.10;;;;;;;11.12;66.25;100433.84;4975194;28;20053;-86
2023/10/20 02:50:57;;;;;;;0.20;0.20;;;;;;;11.08;66.46;100432.34;4975517;28;20400;-85
2023/10/20 02:53:23;;;;;;;0.10;0.10;;;;;;;11.14;66.49;100421.66;4975413;28;20074;-86
2023/10/20 02:55:48;;;;;;;0.10;0.10;;;;;;;11.05;66.58;100410.97;4975212;28;20065;-86
2023/10/20 02:58:13;;;;;;;0.10;0.10;;;;;;;11.10;66.62;100414.13;4975734;28;20036;-86
2023/10/20 03:00:43;;;;;;;0.10;0.10;;;;;;;11.05;66.50;100414.38;4959166;28;20088;-87
2023/10/20 03:03:11;;;;;;;0.10;0.10;;;;;;;11.12;66.48;100420.91;4975236;28;20431;-86
2023/10/20 03:05:37;;;;;;;0.10;0.10;;;;;;;11.12;66.30;100410.56;4991435;28;20030;-89
2023/10/20 03:08:02;;;;;;;0.10;0.10;;;;;;;11.03;66.50;100405.88;4959208;28;20578;-87
2023/10/20 03:10:28;;;;;;;0.10;0.10;;;;;;;11.05;66.60;100408.38;4975287;28;20032;-88
2023/10/20 03:12:53;;;;;;;0.10;0.10;;;;;;;11.20;66.42;100444.59;4975065;28;20026;-87
2023/10/20 03:15:19;;;;;;;0.20;0.20;;;;;;;11.22;66.18;100447.13;4975204;28;20031;-90
2023/10/20 03:17:45;;;;;;;0.10;0.10;;;;;;;11.02;67.13;100450.81;4974905;28;20546;-87
2023/10/20 03:20:16;;;;;;;0.10;0.10;;;;;;;11.12;66.72;100453.75;4974855;28;20046;-87
2023/10/20 03:22:41;;;;;;;0.20;0.20;;;;;;;11.25;66.80;100440.94;4991023;28;20033;-88
2023/10/20 03:25:10;;;;;;;0.20;0.20;;;;;;;11.07;66.57;100446.19;4991004;28;20034;-87
2023/10/20 03:27:37;;;;;;;0.10;0.10;;;;;;;11.06;66.92;100457.47;4990973;28;20065;-86
2023/10/20 03:30:04;;;;;;;0.20;0.20;;;;;;;11.14;66.80;100451.91;5007299;28;20036;-86
2023/10/20 03:32:29;;;;;;;0.10;0.10;;;;;;;11.14;66.07;100450.13;4974601;28;20062;-88
2023/10/20 03:34:55;;;;;;;0.20;0.20;;;;;;;11.09;65.66;100452.13;4954057;28;20062;-87
2023/10/20 03:37:21;;;;;;;0.10;0.10;;;;;;;11.22;64.96;100456.66;4990717;28;20057;-89
2023/10/20 03:39:46;;;;;;;0.10;0.10;;;;;;;11.06;65.20;100454.88;4990795;28;20097;-89
2023/10/20 03:42:13;;;;;;;0.20;0.20;;;;;;;10.97;65.46;100445.03;4990923;28;20030;-88
2023/10/20 03:44:39;;;;;;;0.10;0.10;;;;;;;10.89;65.42;100447.19;4991094;28;20030;-87
2023/10/20 03:47:05;;;;;;;0.10;0.10;;;;;;;10.87;65.79;100446.44;4990347;28;20064;-86
2023/10/20 03:49:34;;;;;;;0.10;0.10;;;;;;;10.90;65.95;100456.59;4991791;28;20042;-88
2023/10/20 03:52:00;;;;;;;0.10;0.10;;;;;;;10.79;65.84;100438.22;4990039;28;20124;-87
2023/10/20 03:54:25;;;;;;;0.10;0.10;;;;;;;10.75;65.94;100439.31;4990311;28;20230;-87
2023/10/20 03:56:51;;;;;;;0.10;0.10;;;;;;;10.70;66.33;100436.94;4990359;28;20034;-88
2023/10/20 03:59:17;;;;;;;0.10;0.10;;;;;;;10.71;66.39;100432.63;4990417;28;20176;-85
2023/10/20 04:01:42;;;;;;;0.20;0.20;;;;;;;10.65;66.17;100430.38;4989735;28;20041;-85
2023/10/20 04:04:09;;;;;;;0.10;0.10;;;;;;;10.75;66.55;100441.91;5008848;28;20034;-86
2023/10/20 04:06:38;;;;;;;0.10;0.10;;;;;;;10.76;66.33;100440.97;4994869;28;20034;-93
2023/10/20 04:09:08;;;;;;;0.10;0.10;;;;;;;10.77;66.38;100437.47;5010747;28;20124;-92
2023/10/20 04:11:34;;;;;;;0.10;0.10;;;;;;;10.77;66.50;100434.91;5011226;28;20029;-92
2023/10/20 04:14:01;;;;;;;0.10;0.10;;;;;;;10.72;66.20;100404.09;5010785;28;20029;-91
2023/10/20 04:16:27;;;;;;;0.10;0.10;;;;;;;10.84;66.13;100439.66;4993379;28;20037;-92
2023/10/20 04:18:53;;;;;;;0.10;0.10;;;;;;;10.90;65.89;100415.19;4994313;28;20065;-93
2023/10/20 04:21:18;;;;;;;0.20;0.20;;;;;;;10.93;65.91;100425.41;5010441;28;20034;-92
2023/10/20 04:23:44;;;;;;;0.10;0.10;;;;;;;10.96;65.79;100430.41;5010421;28;20408;-87
2023/10/20 04:26:20;;;;;;;0.10;0.10;;;;;;;10.92;66.14;100428.91;5009503;28;20033;-87
2023/10/20 04:28:47;;;;;;;0.10;0.10;;;;;;;10.86;66.59;100418.88;5001225;28;20021;-91
2023/10/20 04:52:55;;;;;;;0.20;0.20;;;;;;;10.95;66.61;100417.56;4989902;28;20118;-90
2023/10/20 04:57:53;;;;;;;0.10;0.10;;;;;;;11.08;66.53;100424.56;5010071;28;20034;-95
2023/10/20 05:07:52;;;;;;;0.20;0.20;;;;;;;11.32;65.82;100421.56;5002051;28;20108;-92
2023/10/20 05:10:19;;;;;;;0.20;0.20;;;;;;;11.31;65.96;100425.09;4992936;28;20030;-89
2023/10/20 05:12:45;;;;;;;0.20;0.20;;;;;;;11.45;68.15;100423.38;4988951;28;20022;-90
2023/10/20 05:15:11;;;;;;;0.20;0.20;;;;;;;11.35;65.22;100422.22;4980236;28;20494;-94
2023/10/20 05:17:36;;;;;;;0.10;0.10;;;;;;;11.52;66.99;100413.53;4994217;28;20030;-92
2023/10/20 05:20:24;;;;;;;0.10;0.10;;;;;;;11.36;65.08;100436.00;4996642;28;20045;-89
2023/10/20 05:22:48;;;;;;;0.15;0.15;;;;;;;11.35;66.25;100429.16;5013003;28;20081;-92
2023/10/20 05:25:14;;;;;;;0.10;0.10;;;;;;;11.15;65.37;100431.09;4981157;28;20065;-90
2023/10/20 05:27:40;;;;;;;0.10;0.10;;;;;;;11.31;65.52;100433.69;4980416;28;20053;-92
2023/10/20 05:30:07;;;;;;;0.10;0.10;;;;;;;11.21;65.80;100450.66;4997320;28;20033;-91
2023/10/20 05:32:33;;;;;;;0.10;0.10;;;;;;;11.32;65.32;100443.13;4997840;28;20040;-91
2023/10/20 05:34:59;;;;;;;0.10;0.10;;;;;;;11.24;64.96;100455.66;4982934;28;20054;-92
2023/10/20 05:37:25;;;;;;;0.10;0.10;;;;;;;11.18;65.13;100430.91;4996508;28;20507;-89
2023/10/20 05:39:50;;;;;;;0.10;0.10;;;;;;;11.34;65.52;100468.94;5029787;28;20025;-90
2023/10/20 05:42:18;;;;;;;0.10;0.10;;;;;;;11.27;65.43;100445.13;4996036;28;20419;-92
2023/10/20 05:45:03;;;;;;;0.10;0.10;;;;;;;11.33;65.13;100475.88;5028908;28;20034;-92
2023/10/20 05:47:31;;;;;;;0.20;0.20;;;;;;;11.31;65.15;100472.53;4999481;28;20120;-88
2023/10/20 05:49:58;;;;;;;0.10;0.10;;;;;;;11.35;65.28;100468.84;5012500;28;20434;-91
2023/10/20 05:52:23;;;;;;;0.10;0.10;;;;;;;11.40;65.90;100460.81;4980316;28;20037;-89
2023/10/20 05:54:49;;;;;;;0.10;0.10;;;;;;;11.43;66.28;100465.84;4997881;28;20030;-92
2023/10/20 05:57:15;;;;;;;0.20;0.20;;;;;;;11.53;65.66;100469.59;4999119;28;20040;-92
2023/10/20 05:59:41;;;;;;;0.20;0.20;;;;;;;11.39;65.86;100435.84;5014567;28;20551;-90
2023/10/20 06:02:07;;;;;;;0.10;0.10;;;;;;;11.68;65.88;100465.31;5000629;28;20037;-87
2023/10/20 06:04:34;;;;;;;0.10;0.10;;;;;;;11.62;65.38;100438.00;4997056;28;20022;-88
2023/10/20 06:06:59;;;;;;;0.20;0.20;;;;;;;11.84;65.64;100465.31;5011433;28;20117;-88
2023/10/20 06:09:25;;;;;;;0.10;0.10;;;;;;;11.86;64.67;100458.28;4995109;28;20069;-92
2023/10/20 06:11:53;;;;;;;0.20;0.20;;;;;;;11.84;65.46;100468.75;5028701;28;20682;-90
2023/10/20 06:14:23;;;;;;;0.10;0.10;;;;;;;11.83;65.61;100464.50;5012196;28;20030;-92
2023/10/20 06:16:49;;;;;;;0.20;0.20;;;;;;;11.94;65.72;100480.28;5012684;28;20088;-85
2023/10/20 06:19:15;;;;;;;0.20;0.20;;;;;;;11.97;65.41;100482.69;4985922;28;20526;-90
2023/10/20 06:21:42;;;;;;;0.10;0.10;;;;;;;11.94;65.70;100467.31;4995726;28;20030;-88
2023/10/20 06:24:11;;;;;;;0.10;0.10;;;;;;;11.96;65.44;100472.41;5012791;28;20034;-92
2023/10/20 06:26:36;;;;;;;0.20;0.20;;;;;;;11.96;65.13;100447.31;4995238;28;20058;-88
2023/10/20 06:29:02;;;;;;;0.10;0.10;;;;;;;12.20;65.09;100473.59;5012702;28;20034;-91
2023/10/20 06:36:51;;;;;;;0.10;0.10;;;;;;;12.34;63.26;100455.47;5010611;28;20096;-91
2023/10/20 06:39:18;;;;;;;0.10;0.10;;;;;;;12.45;63.81;100480.75;5012949;28;20080;-89
2023/10/20 06:41:44;;;;;;;0.10;0.10;;;;;;;12.51;63.29;100487.38;4995336;28;20029;-93
2023/10/20 06:44:09;;;;;;;0.20;0.20;;;;;;;12.44;63.22;100452.31;4995657;28;20404;-93
2023/10/20 06:46:35;;;;;;;0.20;0.20;;;;;;;12.62;62.62;100474.59;5011402;28;20048;-91
2023/10/20 06:49:01;;;;;;;0.10;0.10;;;;;;;12.62;63.30;100467.63;5009896;28;20530;-94
2023/10/20 06:51:29;;;;;;;0.20;0.20;;;;;;;12.73;62.64;100469.59;4996825;28;20079;-87
2023/10/20 06:53:55;;;;;;;0.20;0.20;;;;;;;12.71;63.09;100478.41;4995183;28;20061;-91
2023/10/20 06:56:20;;;;;;;0.20;0.20;;;;;;;12.65;62.75;100458.81;4995508;28;20069;-90
2023/10/20 06:58:47;;;;;;;0.10;0.10;;;;;;;12.88;62.36;100486.84;5011343;28;20045;-87
2023/10/20 07:01:13;;;;;;;0.20;0.20;;;;;;;12.91;61.97;100476.25;5010740;28;20389;-89
2023/10/20 07:03:38;;;;;;;0.10;0.10;;;;;;;13.04;62.11;100478.09;4996261;28;20034;-91
2023/10/20 07:06:07;;;;;;;0.20;0.20;;;;;;;13.24;61.50;100482.09;4995381;28;20479;-88
2023/10/20 07:08:33;;;;;;;0.20;0.20;;;;;;;13.09;61.27;100463.09;5010018;28;20411;-86
2023/10/20 07:11:02;;;;;;;0.10;0.10;;;;;;;13.31;61.39;100473.84;5009563;28;20866;-87
2023/10/20 07:13:28;;;;;;;0.10;0.10;;;;;;;13.55;60.76;100491.41;5010074;28;20037;-88
2023/10/20 07:15:56;;;;;;;0.10;0.10;;;;;;;13.62;60.68;100464.09;5009851;28;20026;-85
2023/10/20 07:18:22;;;;;;;0.20;0.20;;;;;;;13.80;60.39;100504.50;5012260;28;20554;-92
2023/10/20 07:20:50;;;;;;;0.20;0.20;;;;;;;13.93;60.06;100488.94;4991086;28;20038;-93
2023/10/20 07:23:17;;;;;;;0.20;0.20;;;;;;;13.91;58.99;100494.25;4996845;28;21040;-93
2023/10/20 07:25:43;;;;;;;0.20;0.20;;;;;;;14.02;58.67;100491.78;4978403;28;20026;-89
2023/10/20 07:28:09;;;;;;;0.20;0.20;;;;;;;14.15;58.51;100476.19;4993757;28;20045;-90
2023/10/20 07:30:35;;;;;;;0.20;0.20;;;;;;;14.35;57.35;100498.28;5009451;28;20491;-92
2023/10/20 07:33:03;;;;;;;0.17;0.17;;;;;;;14.39;56.89;100480.72;4993115;28;20026;-86
2023/10/20 07:35:28;;;;;;;0.10;0.10;;;;;;;14.39;57.10;100478.94;4997988;28;20054;-88
2023/10/20 07:37:54;;;;;;;0.10;0.10;;;;;;;14.70;56.79;100493.34;5010059;28;20033;-91
2023/10/20 07:40:19;;;;;;;0.10;0.10;;;;;;;14.79;56.64;100481.47;4994202;28;20104;-92
2023/10/20 07:42:46;;;;;;;0.10;0.10;;;;;;;14.84;56.43;100492.41;4983283;28;20041;-94
2023/10/20 07:45:11;;;;;;;0.10;0.10;;;;;;;14.83;56.07;100469.91;4995994;28;20034;-92
2023/10/20 07:47:37;;;;;;;0.10;0.10;;;;;;;14.96;56.75;100488.16;4994422;28;20030;-93
2023/10/20 07:50:03;;;;;;;0.10;0.10;;;;;;;15.01;56.88;100480.81;4994760;28;20403;-93
2023/10/20 07:52:29;;;;;;;0.20;0.20;;;;;;;15.04;55.25;100485.81;4993991;28;20503;-89
2023/10/20 07:54:54;;;;;;;0.10;0.10;;;;;;;15.07;55.06;100493.44;5009416;28;20026;-89
2023/10/20 07:57:20;;;;;;;0.10;0.10;;;;;;;15.22;54.69;100476.72;4973689;28;20086;-90
2023/10/20 07:59:46;;;;;;;0.10;0.10;;;;;;;15.34;53.99;100472.41;4998491;28;20124;-93
2023/10/20 08:02:11;;;;;;;0.20;0.20;;;;;;;15.39;54.04;100480.75;5009883;28;20480;-94
2023/10/20 08:04:38;;;;;;;0.20;0.20;;;;;;;15.50;53.43;100472.97;4991994;28;20030;-90
2023/10/20 08:07:04;;;;;;;0.20;0.20;;;;;;;15.47;53.53;100468.00;5007869;28;20120;-94
2023/10/20 08:09:29;;;;;;;0.20;0.20;;;;;;;15.35;53.89;100427.19;5009324;28;20030;-88
2023/10/20 08:11:56;;;;;;;0.10;0.10;;;;;;;15.60;53.55;100465.31;5010524;28;20030;-92
2023/10/20 08:14:22;;;;;;;0.20;0.20;;;;;;;15.67;53.36;100464.81;4993393;28;20030;-87
2023/10/20 08:16:49;;;;;;;0.20;0.20;;;;;;;15.72;53.78;100456.63;4993598;28;20022;-94
2023/10/20 08:19:14;;;;;;;0.10;0.10;;;;;;;15.91;52.62;100466.56;4972728;28;20046;-88
2023/10/20 08:21:40;;;;;;;0.20;0.20;;;;;;;15.75;53.36;100422.53;5005588;28;20096;-87
2023/10/20 08:24:06;;;;;;;0.10;0.10;;;;;;;16.05;52.15;100464.59;5003272;28;20025;-92
2023/10/20 08:26:32;;;;;;;0.20;0.20;;;;;;;16.09;52.12;100464.38;4993458;28;20030;-91
2023/10/20 08:28:58;;;;;;;0.10;0.10;;;;;;;16.32;52.17;100464.34;4987385;28;20084;-91
2023/10/20 08:31:25;;;;;;;0.20;0.20;;;;;;;16.38;51.85;100451.75;5001109;28;20034;-90
2023/10/20 08:33:52;;;;;;;0.20;0.20;;;;;;;16.44;51.57;100452.13;5021893;28;20104;-90
2023/10/20 08:36:20;;;;;;;0.10;0.10;;;;;;;16.58;51.58;100451.06;4957865;28;20050;-92
2023/10/20 08:38:47;;;;;;;0.10;0.10;;;;;;;16.69;51.24;100442.44;4980162;28;20028;-95
2023/10/20 08:41:13;;;;;;;0.10;0.10;;;;;;;16.81;50.72;100455.38;5016465;28;20427;-94
2023/10/20 08:43:42;;;;;;;0.20;0.20;;;;;;;16.86;49.68;100424.50;4995374;28;20112;-91
2023/10/20 08:46:08;;;;;;;0.20;0.20;;;;;;;16.99;49.88;100426.13;4978885;28;20502;-92
2023/10/20 08:48:40;;;;;;;0.10;0.10;;;;;;;17.07;48.88;100428.97;4993608;28;20025;-86
2023/10/20 08:51:07;;;;;;;0.20;0.20;;;;;;;17.27;47.93;100423.00;4993031;28;20026;-89
2023/10/20 08:53:39;;;;;;;0.10;0.10;;;;;;;17.23;47.65;100421.59;4994428;28;20105;-94
2023/10/20 08:56:06;;;;;;;0.10;0.10;;;;;;;17.27;46.66;100414.31;5013694;28;20120;-87
2023/10/20 08:58:32;;;;;;;0.10;0.10;;;;;;;17.18;46.18;100413.28;4997560;28;20500;-92
2023/10/20 09:00:58;;;;;;;0.10;0.10;;;;;;;17.33;47.00;100417.28;4997451;28;20044;-89
2023/10/20 09:05:52;;;;;;;0.20;0.20;;;;;;;17.35;46.11;100397.06;5035678;28;20061;-91
2023/10/20 09:08:18;;;;;;;0.20;0.20;;;;;;;17.58;45.96;100402.22;5014366;28;20089;-92
2023/10/20 09:10:47;;;;;;;0.10;0.10;;;;;;;17.72;45.06;100391.50;5000271;28;20172;-88
2023/10/20 09:13:12;;;;;;;0.20;0.20;;;;;;;17.82;44.63;100391.56;5017067;28;20029;-92
2023/10/20 09:15:38;;;;;;;0.10;0.10;;;;;;;17.93;43.72;100387.09;4995363;28;20049;-90
2023/10/20 09:18:08;;;;;;;0.10;0.10;;;;;;;17.93;43.94;100383.66;5012186;28;20483;-92
2023/10/20 09:20:34;;;;;;;0.10;0.10;;;;;;;18.09;44.70;100389.25;5012108;28;20092;-91
2023/10/20 09:23:00;;;;;;;0.20;0.20;;;;;;;18.17;44.25;100391.22;5016028;28;20037;-91
2023/10/20 09:25:26;;;;;;;0.10;0.10;;;;;;;18.18;45.11;100387.63;5014580;28;20097;-88
2023/10/20 09:27:51;;;;;;;0.10;0.10;;;;;;;18.48;44.12;100403.38;5020488;28;20040;-90
2023/10/20 09:30:17;;;;;;;0.10;0.10;;;;;;;18.71;44.25;100390.13;5015961;28;20510;-91
2023/10/20 09:32:42;;;;;;;0.20;0.20;;;;;;;18.71;43.81;100374.41;4999269;28;20044;-85
2023/10/20 09:35:08;;;;;;;0.15;0.15;;;;;;;18.93;44.61;100384.66;5012122;28;20096;-89
2023/10/20 09:37:36;;;;;;;0.20;0.20;;;;;;;19.08;44.65;100383.34;4999298;28;20650;-89
2023/10/20 09:40:06;;;;;;;0.10;0.10;;;;;;;19.17;44.51;100386.91;4983487;28;20033;-90
2023/10/20 09:42:57;;;;;;;0.10;0.10;;;;;;;19.30;45.03;100398.00;5000160;28;20100;-93
2023/10/20 09:45:28;;;;;;;0.20;0.20;;;;;;;19.39;44.11;100385.84;5018337;28;20039;-93
2023/10/20 09:47:53;;;;;;;0.10;0.10;;;;;;;19.59;44.29;100391.97;4984112;28;20113;-86
2023/10/20 09:50:20;;;;;;;0.20;0.20;;;;;;;19.81;44.50;100381.16;5000314;28;20052;-92
2023/10/20 09:52:46;;;;;;;0.20;0.20;;;;;;;19.80;43.96;100373.44;5017517;28;20033;-89
2023/10/20 09:55:13;;;;;;;0.10;0.10;;;;;;;19.83;44.05;100378.38;5000390;28;20514;-87
2023/10/20 09:57:38;;;;;;;0.10;0.10;;;;;;;19.92;43.53;100365.25;4999121;28;20104;-90
2023/10/20 10:00:08;;;;;;;0.20;0.20;;;;;;;19.96;42.25;100371.03;5010174;28;20030;-91
2023/10/20 10:02:33;;;;;;;0.20;0.20;;;;;;;19.99;42.59;100362.91;5008183;28;20033;-92
2023/10/20 10:05:00;;;;;;;0.10;0.10;;;;;;;19.96;42.17;100347.41;5013608;28;20042;-90
2023/10/20 10:07:32;;;;;;;0.20;0.20;;;;;;;20.11;42.20;100353.88;5014652;28;20045;-91
2023/10/20 10:09:57;;;;;;;0.10;0.10;;;;;;;20.18;42.69;100356.75;5018218;28;20029;-90
2023/10/20 10:12:27;;;;;;;0.10;0.10;;;;;;;20.17;42.22;100334.94;5019967;28;20068;-92
2023/10/20 10:14:57;;;;;;;0.10;0.10;;;;;;;20.37;42.31;100340.09;4978570;28;20104;-89
2023/10/20 10:17:23;;;;;;;0.10;0.10;;;;;;;20.48;42.38;100334.69;5010157;28;20072;-86
2023/10/20 10:19:52;;;;;;;0.10;0.10;;;;;;;20.58;41.88;100333.66;5016040;28;20028;-89
2023/10/20 10:22:29;;;;;;;0.20;0.20;;;;;;;20.84;41.93;100325.06;4999495;28;20033;-86
2023/10/20 10:25:00;;;;;;;0.10;0.10;;;;;;;20.91;41.38;100326.97;5014895;28;20041;-88
2023/10/20 10:27:28;;;;;;;0.10;0.10;;;;;;;20.96;41.44;100326.53;5014675;28;20041;-86
2023/10/20 10:30:05;;;;;;;0.10;0.10;;;;;;;20.94;41.84;100311.84;5015289;28;20060;-91
2023/10/20 10:32:31;;;;;;;0.20;0.20;;;;;;;21.08;41.78;100320.06;5013556;28;20025;-88
2023/10/20 10:34:56;;;;;;;0.10;0.10;;;;;;;21.11;40.03;100298.72;4979898;28;20516;-87
2023/10/20 10:37:33;;;;;;;0.20;0.20;;;;;;;21.22;39.73;100310.81;4997446;28;20029;-89
2023/10/20 10:40:19;;;;;;;0.10;0.10;;;;;;;21.33;40.09;100313.22;4999291;28;20041;-87
2023/10/20 10:42:45;;;;;;;0.20;0.20;;;;;;;21.44;39.55;100315.66;5016842;28;20041;-91
2023/10/20 10:45:14;;;;;;;0.20;0.20;;;;;;;21.58;39.67;100301.09;5014765;28;20057;-89
2023/10/20 10:47:39;;;;;;;0.10;0.10;;;;;;;21.50;38.90;100287.06;5031860;28;20063;-88
2023/10/20 10:50:05;;;;;;;0.13;0.13;;;;;;;21.61;39.50;100305.22;5029360;28;20177;-89
2023/10/20 10:52:34;;;;;;;0.10;0.10;;;;;;;21.60;38.81;100306.22;5000924;28;20017;-91
2023/10/20 10:54:59;;;;;;;0.10;0.10;;;;;;;21.48;39.37;100293.28;5045046;28;20029;-88
2023/10/20 10:57:25;;;;;;;0.10;0.10;;;;;;;21.64;39.13;100289.13;5028535;28;20033;-91
2023/10/20 10:59:50;;;;;;;0.20;0.20;;;;;;;21.56;39.16;100265.41;4985140;28;20525;-89
2023/10/20 11:02:16;;;;;;;0.20;0.20;;;;;;;21.62;38.87;100291.06;5000142;28;20529;-92
2023/10/20 11:04:41;;;;;;;0.10;0.10;;;;;;;21.59;39.00;100286.13;5000294;28;20057;-93
2023/10/20 11:07:07;;;;;;;0.10;0.10;;;;;;;21.40;39.43;100261.66;4996664;28;20086;-89
2023/10/20 11:09:33;;;;;;;0.10;0.10;;;;;;;21.40;39.35;100266.09;4998752;28;20026;-92
2023/10/20 11:11:58;;;;;;;0.10;0.10;;;;;;;21.18;39.68;100257.69;5004229;28;20029;-91
2023/10/20 11:14:24;;;;;;;0.13;0.13;;;;;;;21.32;40.46;100274.75;4999997;28;20419;-93
2023/10/20 11:16:50;;;;;;;0.20;0.20;;;;;;;21.39;40.06;100281.06;5008589;28;20038;-93
2023/10/20 11:19:17;;;;;;;0.20;0.20;;;;;;;21.37;39.90;100282.19;5016091;28;20022;-88
2023/10/20 11:21:48;;;;;;;0.10;0.10;;;;;;;21.38;39.56;100282.03;5002115;28;20135;-92
2023/10/20 11:24:28;;;;;;;0.20;0.20;;;;;;;21.34;39.63;100275.44;4996275;28;20491;-92
2023/10/20 11:27:01;;;;;;;0.20;0.20;;;;;;;21.39;39.46;100274.97;4971574;28;20120;-92
2023/10/20 11:29:30;;;;;;;0.20;0.20;;;;;;;21.41;39.19;100268.56;5030664;28;20114;-91
2023/10/20 11:32:00;;;;;;;0.20;0.20;;;;;;;21.46;39.70;100266.31;5010872;28;20038;-87
2023/10/20 11:34:26;;;;;;;0.20;0.20;;;;;;;21.44;39.40;100270.09;5013121;28;20029;-87
2023/10/20 11:36:52;;;;;;;0.20;0.20;;;;;;;21.45;39.58;100262.03;5007720;28;20064;-88
2023/10/20 11:39:21;;;;;;;0.10;0.10;;;;;;;21.53;39.73;100260.41;4995894;28;20110;-86
2023/10/20 11:41:47;;;;;;;0.20;0.20;;;;;;;21.50;39.60;100250.22;4997311;28;20111;-88
2023/10/20 11:44:12;;;;;;;0.20;0.20;;;;;;;21.58;39.20;100273.97;4996624;28;20509;-89
2023/10/20 11:46:38;;;;;;;0.20;0.20;;;;;;;21.65;38.72;100269.72;5031109;28;20037;-86
2023/10/20 11:49:03;;;;;;;0.20;0.20;;;;;;;21.70;38.72;100265.63;4996752;28;20087;-88
2023/10/20 11:51:29;;;;;;;0.20;0.20;;;;;;;21.91;38.56;100275.78;4980628;28;20017;-93
2023/10/20 11:53:55;;;;;;;0.15;0.15;;;;;;;21.87;37.74;100263.94;5000831;28;20025;-84
2023/10/20 11:56:20;;;;;;;0.10;0.10;;;;;;;22.09;37.43;100277.56;4996733;28;20503;-90
2023/10/20 11:58:46;;;;;;;0.10;0.10;;;;;;;22.04;37.13;100254.31;4981065;28;20033;-88
2023/10/20 12:01:11;;;;;;;0.20;0.20;;;;;;;22.10;37.20;100274.75;5013490;28;20057;-91